Time;durP1;ratioP1;P1;durP2;ratioP2;P2;SDS_P1;SDS_P2;PMS_P1;PMS_P2;Temp;Humidity;BMP_temperature;BMP_pressure;BME280_temperature;BME280_humidity;BME280_pressure;Samples;Min_cycle;Max_cycle;Signal;HPM_P1;HPM_P2
2022/06/24 03:02:11;;;;;;;1.45;1.35;;;30.10;44.60;;;;;;5130070;23;45195;-68
2022/06/24 03:04:37;;;;;;;2.20;2.00;;;30.10;44.60;;;;;;4947350;28;45125;-66
2022/06/24 03:07:02;;;;;;;1.92;1.70;;;30.10;44.60;;;;;;4917157;28;45457;-63
2022/06/24 03:09:28;;;;;;;1.77;1.67;;;30.10;44.60;;;;;;4932228;28;46194;-66
2022/06/24 03:11:53;;;;;;;2.00;1.40;;;30.10;44.60;;;;;;4951995;28;44954;-65
2022/06/24 03:14:19;;;;;;;1.75;1.65;;;30.10;44.60;;;;;;4951289;28;44946;-65
2022/06/24 03:16:45;;;;;;;2.33;1.60;;;30.10;44.70;;;;;;4946073;28;45017;-66
2022/06/24 03:19:10;;;;;;;1.58;1.40;;;30.00;44.70;;;;;;4947390;28;45438;-64
2022/06/24 03:21:36;;;;;;;1.98;1.83;;;30.00;44.70;;;;;;4950675;28;45312;-65
2022/06/24 03:24:01;;;;;;;1.88;1.52;;;30.00;44.70;;;;;;4945015;28;45124;-66
2022/06/24 03:26:27;;;;;;;1.90;1.60;;;30.00;44.70;;;;;;4943061;28;45289;-65
2022/06/24 03:28:52;;;;;;;2.05;1.73;;;30.00;44.70;;;;;;4944070;28;45503;-66
2022/06/24 03:31:18;;;;;;;2.10;1.50;;;30.00;44.70;;;;;;4943356;28;45401;-66
2022/06/24 03:33:45;;;;;;;1.83;1.73;;;30.00;44.70;;;;;;4943626;28;45002;-65
2022/06/24 03:36:11;;;;;;;1.95;1.55;;;30.00;44.70;;;;;;4949338;28;45124;-66
2022/06/24 03:38:37;;;;;;;1.50;1.40;;;30.00;44.70;;;;;;4944889;28;45986;-61
2022/06/24 03:41:03;;;;;;;2.58;1.83;;;30.00;44.70;;;;;;4948500;28;45265;-67
2022/06/24 03:43:28;;;;;;;2.25;2.00;;;30.00;45.30;;;;;;4929726;28;45256;-63
2022/06/24 03:46:03;;;;;;;2.83;1.83;;;30.00;44.70;;;;;;4941585;28;44971;-65
2022/06/24 03:48:29;;;;;;;2.00;1.70;;;30.00;45.00;;;;;;4945623;28;45866;-67
2022/06/24 03:50:55;;;;;;;5.40;1.75;;;29.80;45.10;;;;;;4947522;28;45095;-64
2022/06/24 03:53:21;;;;;;;3.63;1.90;;;29.70;45.20;;;;;;4950074;28;45306;-65
2022/06/24 03:55:50;;;;;;;4.00;1.70;;;29.70;45.40;;;;;;4941478;28;45279;-65
2022/06/24 03:58:19;;;;;;;2.85;1.90;;;29.60;45.60;;;;;;4949685;28;45921;-64
2022/06/24 04:00:45;;;;;;;4.47;1.70;;;29.60;45.70;;;;;;4939861;28;46268;-68
2022/06/24 04:03:10;;;;;;;3.58;1.88;;;29.50;45.90;;;;;;4942948;28;45191;-65
2022/06/24 04:05:36;;;;;;;4.25;1.55;;;29.50;45.90;;;;;;4946023;28;45148;-65
2022/06/24 04:08:01;;;;;;;5.60;1.70;;;29.40;46.00;;;;;;4947562;28;46126;-63
2022/06/24 04:10:27;;;;;;;2.92;1.70;;;29.50;46.10;;;;;;4947835;28;45122;-66
2022/06/24 04:12:53;;;;;;;3.90;1.80;;;29.40;46.20;;;;;;4949769;28;45120;-68
2022/06/24 04:15:19;;;;;;;7.30;1.67;;;29.30;46.20;;;;;;4947558;28;44956;-67
2022/06/24 04:17:46;;;;;;;4.80;1.30;;;29.30;46.40;;;;;;4946171;28;45135;-65
2022/06/24 04:20:12;;;;;;;4.53;1.65;;;29.30;46.50;;;;;;4948265;28;44993;-65
2022/06/24 04:22:37;;;;;;;4.15;1.60;;;29.20;46.60;;;;;;4949213;28;44863;-66
2022/06/24 04:25:03;;;;;;;4.30;1.58;;;29.20;46.60;;;;;;4941849;28;45263;-65
2022/06/24 04:27:29;;;;;;;3.35;1.52;;;29.20;46.70;;;;;;4947871;28;46310;-61
2022/06/24 04:30:05;;;;;;;3.72;1.63;;;29.20;46.80;;;;;;4948007;28;45852;-67
2022/06/24 04:32:31;;;;;;;4.40;1.83;;;29.20;47.10;;;;;;4946861;28;45163;-66
2022/06/24 04:34:57;;;;;;;4.50;1.35;;;29.20;47.00;;;;;;4944956;28;45255;-67
2022/06/24 04:37:22;;;;;;;7.30;1.70;;;29.10;47.10;;;;;;4948383;28;46185;-68
2022/06/24 04:39:48;;;;;;;5.55;1.52;;;29.10;47.20;;;;;;4948330;28;44980;-65
2022/06/24 04:42:14;;;;;;;5.25;1.30;;;29.00;47.30;;;;;;4947362;28;44867;-62
2022/06/24 04:44:39;;;;;;;2.33;1.23;;;29.00;47.40;;;;;;4947100;28;45844;-67
2022/06/24 04:47:05;;;;;;;2.53;1.30;;;29.00;47.60;;;;;;4946055;28;46111;-63
2022/06/24 04:49:32;;;;;;;2.70;1.23;;;28.90;47.60;;;;;;4948047;28;45043;-68
2022/06/24 04:51:57;;;;;;;4.78;1.40;;;28.90;47.70;;;;;;4943891;28;45296;-67
2022/06/24 04:54:23;;;;;;;3.58;1.13;;;28.90;47.80;;;;;;4944880;28;46361;-63
2022/06/24 04:56:49;;;;;;;1.85;0.90;;;28.90;47.90;;;;;;4942142;28;46064;-68
2022/06/24 04:59:15;;;;;;;3.22;1.40;;;28.90;48.00;;;;;;4942309;28;45147;-62
2022/06/24 05:01:40;;;;;;;5.90;1.30;;;28.90;48.10;;;;;;4941544;28;45301;-67
2022/06/24 05:04:06;;;;;;;4.45;1.10;;;28.80;48.10;;;;;;4945749;28;45424;-65
2022/06/24 05:06:31;;;;;;;3.90;1.40;;;28.80;48.20;;;;;;4945278;28;45661;-68
2022/06/24 05:08:57;;;;;;;3.58;1.50;;;28.80;48.20;;;;;;4949160;28;45165;-71
2022/06/24 05:11:23;;;;;;;4.55;1.30;;;28.80;48.30;;;;;;4949081;28;45190;-69
2022/06/24 05:13:48;;;;;;;3.40;1.02;;;28.80;48.40;;;;;;4944385;28;45218;-63
2022/06/24 05:16:14;;;;;;;5.13;1.10;;;28.70;49.00;;;;;;4950272;28;46146;-58
2022/06/24 05:18:40;;;;;;;6.05;1.40;;;28.80;48.40;;;;;;4952567;28;44879;-64
2022/06/24 05:21:05;;;;;;;4.53;1.10;;;28.70;48.30;;;;;;4943988;28;45570;-59
2022/06/24 05:23:31;;;;;;;3.70;0.90;;;28.80;48.40;;;;;;4956343;28;45235;-61
2022/06/24 05:25:56;;;;;;;3.20;1.00;;;28.80;48.40;;;;;;4948235;28;46383;-61
2022/06/24 05:28:22;;;;;;;4.45;0.90;;;28.70;48.40;;;;;;4947651;28;44971;-60
2022/06/24 05:30:54;;;;;;;5.68;1.10;;;28.70;48.50;;;;;;4950862;28;45042;-65
2022/06/24 05:33:20;;;;;;;2.27;0.90;;;28.70;48.70;;;;;;4951053;28;45309;-64
2022/06/24 05:35:45;;;;;;;4.88;1.10;;;28.70;48.60;;;;;;4939710;28;45957;-58
2022/06/24 05:38:11;;;;;;;4.05;1.00;;;28.70;48.70;;;;;;4953685;28;46288;-63
2022/06/24 05:40:36;;;;;;;3.72;1.00;;;28.70;48.80;;;;;;4953746;28;44975;-64
2022/06/24 05:43:02;;;;;;;3.13;1.08;;;28.70;48.70;;;;;;4953511;28;45282;-62
2022/06/24 05:45:27;;;;;;;2.78;0.90;;;28.60;48.70;;;;;;4949391;28;45875;-64
2022/06/24 05:47:56;;;;;;;7.15;1.40;;;28.70;48.80;;;;;;4955786;28;44790;-61
2022/06/24 05:50:21;;;;;;;4.18;1.02;;;28.70;48.70;;;;;;4957721;28;45162;-64
2022/06/24 05:55:31;;;;;;;3.50;0.98;;;28.70;48.90;;;;;;4943511;28;46152;-72
2022/06/24 05:57:57;;;;;;;3.22;0.90;;;28.70;48.90;;;;;;4953052;28;44669;-61
2022/06/24 06:00:23;;;;;;;3.00;1.02;;;28.70;49.00;;;;;;4961940;28;45268;-61
2022/06/24 06:02:49;;;;;;;4.47;1.08;;;28.70;49.20;;;;;;4956659;28;44719;-63
2022/06/24 06:05:15;;;;;;;1.27;0.90;;;28.60;49.20;;;;;;4961885;28;46128;-61
2022/06/24 06:07:40;;;;;;;5.15;0.85;;;28.60;49.30;;;;;;4958966;28;44906;-62
2022/06/24 06:10:06;;;;;;;6.20;0.90;;;28.60;49.50;;;;;;4958086;28;44828;-61
2022/06/24 06:12:35;;;;;;;3.72;1.05;;;28.60;49.60;;;;;;4959851;28;44960;-62
2022/06/24 06:15:01;;;;;;;2.83;0.85;;;28.60;49.80;;;;;;4961411;28;46005;-60
2022/06/24 06:17:27;;;;;;;2.90;0.73;;;28.60;49.80;;;;;;4939774;28;44810;-61
2022/06/24 06:19:52;;;;;;;4.55;0.93;;;28.70;49.80;;;;;;4964738;28;45044;-59
2022/06/24 06:22:18;;;;;;;4.05;1.00;;;28.60;49.90;;;;;;4954691;28;45168;-60
2022/06/24 06:24:43;;;;;;;4.53;1.08;;;28.60;49.90;;;;;;4959260;28;46042;-62
2022/06/24 06:27:09;;;;;;;3.47;1.10;;;28.70;50.00;;;;;;4956607;28;45097;-66
2022/06/24 06:29:35;;;;;;;6.60;1.40;;;28.60;50.00;;;;;;4964699;28;44997;-60
2022/06/24 06:32:00;;;;;;;3.35;1.00;;;28.60;50.00;;;;;;4964595;28;45274;-63
2022/06/24 06:34:26;;;;;;;3.90;1.25;;;28.60;50.00;;;;;;4964591;28;45957;-60
2022/06/24 06:36:51;;;;;;;5.55;1.20;;;28.60;50.00;;;;;;4956449;28;45418;-60
2022/06/24 06:39:17;;;;;;;3.42;1.05;;;28.60;50.00;;;;;;4966561;28;45072;-60
2022/06/24 06:41:46;;;;;;;5.65;0.85;;;28.60;50.00;;;;;;4954120;28;45042;-61
2022/06/24 06:44:14;;;;;;;6.90;1.20;;;28.60;49.90;;;;;;4963410;28;46293;-60
2022/06/24 06:46:40;;;;;;;3.70;1.02;;;28.60;49.90;;;;;;4967557;28;44815;-57
2022/06/24 06:49:06;;;;;;;4.03;0.80;;;28.60;49.80;;;;;;4967204;28;44854;-60
2022/06/24 06:51:31;;;;;;;3.88;0.95;;;28.70;49.80;;;;;;4949198;28;45355;-66
2022/06/24 06:53:57;;;;;;;2.97;0.77;;;28.70;49.80;;;;;;4954472;28;45961;-63
2022/06/24 06:56:22;;;;;;;2.47;0.70;;;28.70;49.90;;;;;;4956394;28;45126;-62
2022/06/24 06:58:48;;;;;;;4.75;0.88;;;28.70;49.80;;;;;;4962459;28;44949;-61
2022/06/24 07:01:13;;;;;;;5.22;1.13;;;28.60;49.70;;;;;;4957308;28;45201;-62
2022/06/24 07:03:39;;;;;;;1.83;0.80;;;28.70;49.80;;;;;;4952313;28;46646;-61
2022/06/24 07:06:05;;;;;;;5.35;1.08;;;28.70;49.80;;;;;;4956616;28;44993;-63
2022/06/24 07:08:30;;;;;;;3.03;0.73;;;28.70;49.80;;;;;;4965390;28;45149;-61
2022/06/24 07:10:57;;;;;;;4.70;0.70;;;28.70;49.80;;;;;;4958014;28;45253;-58
2022/06/24 07:13:23;;;;;;;7.75;1.25;;;28.70;49.70;;;;;;4954140;28;46063;-61
2022/06/24 07:15:48;;;;;;;13.55;1.40;;;28.70;49.80;;;;;;4957565;28;45047;-62
2022/06/24 07:18:14;;;;;;;2.92;0.90;;;28.70;49.70;;;;;;4958359;28;44976;-61
2022/06/24 07:20:39;;;;;;;2.75;0.80;;;28.70;49.60;;;;;;4957594;28;44941;-64
2022/06/24 07:23:05;;;;;;;3.45;0.85;;;28.70;49.60;;;;;;4956357;28;46158;-62
2022/06/24 07:25:31;;;;;;;3.17;0.90;;;28.70;49.50;;;;;;4962217;28;45049;-61
2022/06/24 07:27:56;;;;;;;2.28;0.75;;;28.70;49.50;;;;;;4963418;28;44995;-63
2022/06/24 07:30:22;;;;;;;3.55;1.17;;;28.70;49.40;;;;;;4966042;28;44741;-60
2022/06/24 07:32:47;;;;;;;3.63;0.93;;;28.70;49.40;;;;;;4963625;28;46029;-61
2022/06/24 07:35:13;;;;;;;2.88;0.93;;;28.70;49.40;;;;;;4960582;28;44988;-60
2022/06/24 07:37:39;;;;;;;3.78;0.90;;;28.70;49.30;;;;;;4962305;28;44939;-60
2022/06/24 07:40:05;;;;;;;3.20;1.02;;;28.70;49.30;;;;;;4973714;28;44935;-63
2022/06/24 07:42:31;;;;;;;2.45;0.82;;;28.70;49.30;;;;;;4958940;28;46362;-62
2022/06/24 07:44:56;;;;;;;2.20;0.82;;;28.70;49.30;;;;;;4965131;28;45023;-63
2022/06/24 07:47:22;;;;;;;7.18;1.15;;;28.70;49.30;;;;;;4963470;28;44611;-60
2022/06/24 07:49:47;;;;;;;2.90;0.93;;;28.70;49.30;;;;;;4967118;28;45169;-58
2022/06/24 07:52:13;;;;;;;4.05;0.80;;;28.70;49.30;;;;;;4961001;28;45326;-61
2022/06/24 07:54:38;;;;;;;3.10;1.00;;;28.70;49.30;;;;;;4965539;28;45191;-58
2022/06/24 07:57:04;;;;;;;9.23;1.00;;;28.70;49.30;;;;;;4966327;28;44923;-60
2022/06/24 07:59:34;;;;;;;6.30;0.90;;;28.70;49.30;;;;;;4964287;28;45051;-60
2022/06/24 08:02:01;;;;;;;4.85;1.00;;;28.70;49.20;;;;;;4955199;28;46090;-59
2022/06/24 08:04:28;;;;;;;3.00;1.02;;;28.70;49.20;;;;;;4956448;28;44929;-56
2022/06/24 08:06:53;;;;;;;3.95;1.20;;;28.70;49.20;;;;;;4962886;28;44889;-59
2022/06/24 08:09:20;;;;;;;2.55;1.00;;;28.70;49.20;;;;;;4972813;28;45127;-60
2022/06/24 08:11:46;;;;;;;3.45;1.10;;;28.70;49.20;;;;;;4969237;28;46083;-63
2022/06/24 08:14:13;;;;;;;4.50;1.30;;;28.70;49.10;;;;;;4955660;28;45091;-58
2022/06/24 08:16:38;;;;;;;8.07;1.23;;;28.70;49.10;;;;;;4961387;28;44934;-63
2022/06/24 08:19:04;;;;;;;3.53;1.20;;;28.80;49.20;;;;;;4973765;28;44890;-63
2022/06/24 08:21:29;;;;;;;3.38;0.88;;;28.80;49.20;;;;;;4959819;28;45619;-58
2022/06/24 08:23:55;;;;;;;3.85;1.05;;;28.80;49.10;;;;;;4966544;28;45213;-60
2022/06/24 08:26:21;;;;;;;9.00;0.90;;;28.80;49.10;;;;;;4966622;28;45244;-60
2022/06/24 08:28:46;;;;;;;4.38;0.95;;;28.80;49.10;;;;;;4966021;28;45143;-63
2022/06/24 08:31:12;;;;;;;4.32;1.10;;;28.80;49.10;;;;;;4969113;28;45851;-62
2022/06/24 08:33:37;;;;;;;3.70;0.93;;;28.80;49.10;;;;;;4967686;28;44917;-61
2022/06/24 08:36:03;;;;;;;4.30;1.10;;;28.80;49.10;;;;;;4962355;28;44919;-63
2022/06/24 08:38:29;;;;;;;6.45;1.52;;;28.80;49.00;;;;;;4962580;28;44821;-62
2022/06/24 08:40:54;;;;;;;5.40;1.30;;;28.80;49.00;;;;;;4962482;28;45621;-63
2022/06/24 08:43:23;;;;;;;3.80;1.67;;;28.80;49.00;;;;;;4962996;28;45193;-60
2022/06/24 08:45:49;;;;;;;5.65;1.35;;;28.80;48.80;;;;;;4937363;28;45323;-55
2022/06/24 08:48:15;;;;;;;4.72;1.13;;;28.80;48.60;;;;;;4958952;28;45344;-62
2022/06/24 08:50:40;;;;;;;3.85;0.98;;;28.80;48.60;;;;;;4951932;28;45715;-60
2022/06/24 08:53:07;;;;;;;3.03;1.00;;;28.80;48.50;;;;;;4967522;28;44848;-64
2022/06/24 08:55:37;;;;;;;4.53;1.13;;;28.90;48.40;;;;;;4962953;28;45056;-62
2022/06/24 08:58:10;;;;;;;11.18;1.67;;;28.80;48.30;;;;;;4950003;28;45324;-61
2022/06/24 09:00:36;;;;;;;3.83;1.05;;;28.90;48.30;;;;;;4962374;28;45056;-63
2022/06/24 09:03:03;;;;;;;3.22;1.40;;;28.80;48.30;;;;;;4953643;28;44692;-62
2022/06/24 09:05:28;;;;;;;8.13;1.42;;;28.80;48.30;;;;;;4940201;28;45065;-60
2022/06/24 09:08:14;;;;;;;3.22;1.00;;;28.80;48.20;;;;;;4962514;28;45005;-62
2022/06/24 09:11:05;;;;;;;3.17;1.15;;;28.90;48.10;;;;;;4955869;28;46008;-63
2022/06/24 09:13:30;;;;;;;6.13;1.33;;;28.90;48.10;;;;;;4969619;28;45168;-61
2022/06/24 09:15:55;;;;;;;3.97;1.30;;;28.90;48.00;;;;;;4951451;28;44851;-61
2022/06/24 09:18:24;;;;;;;8.13;1.20;;;28.90;48.00;;;;;;4960663;28;44823;-58
2022/06/24 09:20:51;;;;;;;4.65;1.58;;;28.90;47.80;;;;;;4952966;28;45309;-62
2022/06/24 09:23:17;;;;;;;3.70;1.20;;;28.90;47.80;;;;;;4943505;28;45573;-61
2022/06/24 09:25:44;;;;;;;5.78;1.30;;;28.90;47.80;;;;;;4960974;28;44983;-62
2022/06/24 09:28:10;;;;;;;4.97;1.15;;;29.00;47.80;;;;;;4955353;28;45093;-62
2022/06/24 09:30:36;;;;;;;9.45;1.63;;;29.00;47.70;;;;;;4959908;28;46147;-62
2022/06/24 09:33:02;;;;;;;2.33;1.10;;;29.00;47.60;;;;;;4954240;28;45421;-63
2022/06/24 09:35:28;;;;;;;4.00;1.08;;;29.00;47.60;;;;;;4953636;28;45226;-61
2022/06/24 09:37:53;;;;;;;3.78;1.20;;;29.00;47.50;;;;;;4952981;28;45013;-60
2022/06/24 09:40:19;;;;;;;4.18;1.15;;;29.10;47.60;;;;;;4961316;28;46054;-63
2022/06/24 09:42:52;;;;;;;3.40;1.20;;;29.10;47.50;;;;;;4970245;28;44913;-61
2022/06/24 09:45:17;;;;;;;4.20;1.42;;;29.10;47.50;;;;;;4965967;28;45089;-62
2022/06/24 09:47:47;;;;;;;5.90;1.30;;;29.10;47.50;;;;;;4947390;28;45269;-58
2022/06/24 09:50:13;;;;;;;9.43;1.63;;;29.20;47.50;;;;;;4957210;28;46493;-63
2022/06/24 09:52:39;;;;;;;3.70;1.02;;;29.20;47.40;;;;;;4933680;28;44953;-60
2022/06/24 09:55:05;;;;;;;3.88;1.33;;;29.20;47.20;;;;;;4952378;28;45184;-63
2022/06/24 09:57:30;;;;;;;8.23;1.55;;;29.30;47.20;;;;;;4926192;28;45103;-59
2022/06/24 10:02:40;;;;;;;4.07;1.45;;;29.40;47.10;;;;;;4931856;28;45701;-56
2022/06/24 10:05:07;;;;;;;6.93;1.50;;;29.40;47.10;;;;;;4917941;28;45159;-58
2022/06/24 10:07:34;;;;;;;5.95;1.38;;;29.40;47.00;;;;;;4919023;28;45400;-59
2022/06/24 10:10:06;;;;;;;6.72;1.52;;;29.40;46.90;;;;;;4950734;28;46118;-58
2022/06/24 10:12:34;;;;;;;7.10;1.50;;;29.50;46.80;;;;;;4928517;28;44928;-59
2022/06/24 10:14:59;;;;;;;5.15;1.20;;;29.50;46.80;;;;;;4931294;28;45231;-57
2022/06/24 10:17:26;;;;;;;5.93;1.10;;;29.50;46.70;;;;;;4946351;28;45252;-56
2022/06/24 10:19:51;;;;;;;5.38;1.20;;;29.60;46.60;;;;;;4926126;28;45125;-56
2022/06/24 10:22:41;;;;;;;5.70;1.67;;;29.50;46.30;;;;;;4929840;28;46118;-55
2022/06/24 10:25:07;;;;;;;4.15;1.08;;;29.60;46.10;;;;;;4919275;28;45212;-62
2022/06/24 10:27:57;;;;;;;3.35;1.00;;;29.60;46.30;;;;;;4911365;28;45180;-60
2022/06/24 10:30:47;;;;;;;3.00;1.05;;;29.70;45.90;;;;;;4941287;28;46243;-57
2022/06/24 10:33:19;;;;;;;2.75;0.90;;;29.70;45.70;;;;;;4945810;28;45006;-60
2022/06/24 10:35:58;;;;;;;2.67;1.10;;;29.80;45.80;;;;;;4953591;28;44862;-59
2022/06/24 10:38:46;;;;;;;3.70;1.17;;;29.80;45.50;;;;;;4952600;28;44973;-59
2022/06/24 10:41:12;;;;;;;5.38;0.93;;;29.80;45.60;;;;;;4952913;28;46067;-60
2022/06/24 10:43:41;;;;;;;3.90;1.20;;;29.90;45.40;;;;;;4933393;28;45120;-61
2022/06/24 10:46:13;;;;;;;5.60;1.25;;;29.90;45.40;;;;;;4947412;28;45125;-57
2022/06/24 10:48:57;;;;;;;3.60;0.95;;;30.00;45.00;;;;;;4947425;28;45131;-57
2022/06/24 10:51:23;;;;;;;3.60;1.20;;;30.00;44.60;;;;;;4953607;28;45982;-56
2022/06/24 10:54:01;;;;;;;4.50;1.20;;;30.00;45.00;;;;;;4948787;28;44875;-57
2022/06/24 10:56:42;;;;;;;7.65;1.55;;;30.00;44.20;;;;;;4946683;28;44963;-55
2022/06/24 10:59:07;;;;;;;5.25;1.05;;;30.00;44.10;;;;;;4948251;28;44757;-57
2022/06/24 11:01:33;;;;;;;4.30;1.00;;;30.00;44.70;;;;;;4947736;28;45566;-54
2022/06/24 11:04:03;;;;;;;6.13;1.77;;;30.10;44.40;;;;;;4946432;28;45085;-57
2022/06/24 11:06:28;;;;;;;2.30;0.90;;;30.10;44.40;;;;;;4931683;28;45025;-57
2022/06/24 11:08:54;;;;;;;5.40;1.30;;;30.10;44.50;;;;;;4958367;28;44665;-55
2022/06/24 11:11:29;;;;;;;8.65;1.45;;;30.10;44.50;;;;;;4954915;28;45366;-55
2022/06/24 11:13:55;;;;;;;4.20;0.90;;;30.20;44.10;;;;;;4950609;28;44985;-54
2022/06/24 11:16:20;;;;;;;5.13;0.82;;;30.20;44.30;;;;;;4952679;28;44907;-54
2022/06/24 11:18:49;;;;;;;5.50;1.00;;;30.20;44.20;;;;;;4946549;28;45333;-57
2022/06/24 11:21:17;;;;;;;5.35;1.15;;;30.20;43.80;;;;;;4929263;28;45258;-54
2022/06/24 11:23:43;;;;;;;4.43;1.15;;;30.20;43.80;;;;;;4957720;28;44901;-55
2022/06/24 11:26:21;;;;;;;4.32;1.00;;;30.20;43.50;;;;;;4929018;28;44755;-55
2022/06/24 11:28:51;;;;;;;3.53;1.00;;;30.30;42.80;;;;;;4947298;28;44992;-56
2022/06/24 11:31:20;;;;;;;3.50;0.88;;;30.30;43.10;;;;;;4948404;28;46152;-57
2022/06/24 11:33:49;;;;;;;5.07;1.10;;;30.30;43.50;;;;;;4953834;28;45009;-57
2022/06/24 11:36:15;;;;;;;5.30;0.90;;;30.30;43.10;;;;;;4932037;28;44911;-57
2022/06/24 11:38:53;;;;;;;3.53;0.93;;;30.30;43.10;;;;;;4953256;28;44918;-58
2022/06/24 11:41:23;;;;;;;4.35;0.90;;;30.40;42.90;;;;;;4941948;28;46192;-59
2022/06/24 11:43:50;;;;;;;4.43;0.73;;;30.40;42.60;;;;;;4950160;28;44757;-58
2022/06/24 11:46:16;;;;;;;3.25;1.05;;;30.40;42.60;;;;;;4951779;28;45188;-58
2022/06/24 11:48:41;;;;;;;4.43;1.38;;;30.50;42.40;;;;;;4946826;28;44886;-57
2022/06/24 11:51:15;;;;;;;3.65;0.80;;;30.50;42.30;;;;;;4931836;28;45850;-58
2022/06/24 11:53:43;;;;;;;2.97;0.90;;;30.60;42.10;;;;;;4932951;28;45192;-57
2022/06/24 11:56:08;;;;;;;4.10;0.82;;;30.60;42.10;;;;;;4946628;28;45336;-56
2022/06/24 11:58:36;;;;;;;4.07;1.02;;;30.50;41.80;;;;;;4953695;28;44769;-56
2022/06/24 12:01:01;;;;;;;6.28;1.00;;;30.50;41.90;;;;;;4948277;28;46338;-57
2022/06/24 12:03:27;;;;;;;3.00;0.90;;;30.60;41.80;;;;;;4934305;28;45273;-59
2022/06/24 12:05:53;;;;;;;0.98;0.52;;;30.60;41.70;;;;;;4947343;28;44900;-54
2022/06/24 12:08:18;;;;;;;3.17;0.90;;;30.60;41.50;;;;;;4932691;28;44748;-56
2022/06/24 12:10:52;;;;;;;4.97;1.05;;;30.60;41.50;;;;;;4928817;28;46081;-60
2022/06/24 12:13:29;;;;;;;3.75;0.80;;;30.60;41.20;;;;;;4959906;28;44876;-59
2022/06/24 12:15:55;;;;;;;1.35;0.80;;;30.60;40.80;;;;;;4956655;28;45368;-56
2022/06/24 12:18:22;;;;;;;5.75;0.98;;;30.60;41.50;;;;;;4952133;28;45074;-57
2022/06/24 12:21:04;;;;;;;2.63;1.13;;;30.60;41.50;;;;;;4953686;28;46605;-59
2022/06/24 12:23:39;;;;;;;4.55;1.30;;;30.60;40.90;;;;;;4956440;28;44855;-57
2022/06/24 12:26:15;;;;;;;2.38;1.05;;;30.60;41.40;;;;;;4957082;28;45075;-57
2022/06/24 12:28:41;;;;;;;2.90;1.05;;;30.60;41.20;;;;;;4951180;28;44898;-58
2022/06/24 12:31:08;;;;;;;6.15;1.05;;;30.60;41.70;;;;;;4949569;28;45458;-58
2022/06/24 12:33:36;;;;;;;3.88;1.10;;;30.60;41.70;;;;;;4957248;28;45037;-57
2022/06/24 12:36:08;;;;;;;4.40;1.00;;;30.60;41.80;;;;;;4944330;28;44711;-58
2022/06/24 12:38:35;;;;;;;3.70;1.23;;;30.60;41.80;;;;;;4941977;28;45144;-58
2022/06/24 12:41:08;;;;;;;3.05;1.20;;;30.60;41.90;;;;;;4938623;28;46435;-59
2022/06/24 12:43:33;;;;;;;3.22;1.05;;;30.60;41.80;;;;;;4958393;28;45072;-59
2022/06/24 12:46:01;;;;;;;5.90;1.05;;;30.60;41.90;;;;;;4935085;28;44867;-57
2022/06/24 12:51:12;;;;;;;2.00;0.75;;;30.60;42.00;;;;;;4931870;28;46555;-57
2022/06/24 12:53:37;;;;;;;5.43;1.25;;;30.60;42.00;;;;;;4954945;28;45421;-55
2022/06/24 12:56:03;;;;;;;5.55;1.30;;;30.60;42.00;;;;;;4952549;28;45308;-52
2022/06/24 12:58:29;;;;;;;6.13;1.20;;;30.60;41.90;;;;;;4959201;28;45714;-53
2022/06/24 13:00:54;;;;;;;3.53;1.05;;;30.60;42.00;;;;;;4937224;28;45126;-56
2022/06/24 13:03:20;;;;;;;4.18;0.90;;;30.60;41.90;;;;;;4959791;28;45213;-54
2022/06/24 13:05:47;;;;;;;3.95;0.80;;;30.60;41.80;;;;;;4959196;28;45219;-53
2022/06/24 13:08:13;;;;;;;4.78;0.90;;;30.60;41.80;;;;;;4955342;28;45064;-58
2022/06/24 13:10:38;;;;;;;2.65;1.00;;;30.60;41.80;;;;;;4959158;28;45976;-54
2022/06/24 13:13:04;;;;;;;3.88;0.90;;;30.60;41.80;;;;;;4923759;28;45436;-56
2022/06/24 13:15:30;;;;;;;3.08;0.88;;;30.60;41.70;;;;;;4958229;28;44940;-56
2022/06/24 13:17:55;;;;;;;4.57;1.25;;;30.70;41.80;;;;;;4937446;28;46342;-58
2022/06/24 13:20:21;;;;;;;3.28;1.00;;;30.70;42.40;;;;;;4956724;28;45465;-57
2022/06/24 13:22:46;;;;;;;2.95;0.93;;;30.70;42.90;;;;;;4927737;28;44636;-59
2022/06/24 13:25:12;;;;;;;4.35;1.30;;;30.60;43.50;;;;;;4956447;28;44855;-59
2022/06/24 13:27:38;;;;;;;9.18;1.52;;;30.60;44.00;;;;;;4936992;28;45477;-66
2022/06/24 13:30:04;;;;;;;12.18;1.58;;;30.60;44.50;;;;;;4935592;28;45901;-70
2022/06/24 13:32:30;;;;;;;10.10;1.30;;;30.50;45.30;;;;;;4951245;28;46347;-66
2022/06/24 13:34:55;;;;;;;16.35;1.85;;;30.50;45.20;;;;;;4948441;28;45208;-63
2022/06/24 13:37:21;;;;;;;8.88;1.67;;;30.50;45.50;;;;;;4954321;28;45055;-60
2022/06/24 13:39:46;;;;;;;12.75;1.48;;;30.50;45.50;;;;;;4955013;28;45298;-61
2022/06/24 13:42:12;;;;;;;17.38;2.03;;;30.50;45.10;;;;;;4959200;28;45435;-59
2022/06/24 13:44:38;;;;;;;17.75;2.22;;;30.60;45.50;;;;;;4921492;28;44777;-66
2022/06/24 13:47:03;;;;;;;17.55;2.10;;;30.60;45.70;;;;;;4952040;28;45079;-58
2022/06/24 13:49:29;;;;;;;16.70;2.05;;;30.60;45.40;;;;;;4941165;28;46012;-61
2022/06/24 13:51:55;;;;;;;10.88;2.10;;;30.60;45.50;;;;;;4943249;28;45137;-62
2022/06/24 13:54:20;;;;;;;18.05;2.17;;;30.60;45.50;;;;;;4943779;28;45055;-66
2022/06/24 13:56:46;;;;;;;9.00;1.98;;;30.60;45.50;;;;;;4944405;28;45013;-64
2022/06/24 13:59:14;;;;;;;9.10;2.20;;;30.60;45.50;;;;;;4953529;28;46104;-65
2022/06/24 14:01:41;;;;;;;10.52;1.77;;;30.60;45.50;;;;;;4924775;28;45205;-60
2022/06/24 14:04:06;;;;;;;13.93;2.25;;;30.60;45.50;;;;;;4948307;28;45096;-65
2022/06/24 14:06:32;;;;;;;10.10;1.88;;;30.60;45.50;;;;;;4948939;28;44822;-63
2022/06/24 14:08:57;;;;;;;11.50;2.30;;;30.60;45.50;;;;;;4948127;28;46190;-68
2022/06/24 14:11:23;;;;;;;10.57;1.83;;;30.70;45.60;;;;;;4938287;28;45288;-68
2022/06/24 14:13:49;;;;;;;12.55;2.33;;;30.70;45.60;;;;;;4931930;28;45143;-69
2022/06/24 14:16:14;;;;;;;14.90;2.38;;;30.70;45.60;;;;;;4945589;28;45138;-75
2022/06/24 14:18:41;;;;;;;14.38;2.65;;;30.70;45.60;;;;;;4949672;28;45861;-69
2022/06/24 14:21:09;;;;;;;11.13;2.00;;;30.60;45.60;;;;;;4918133;28;45055;-72
2022/06/24 14:26:21;;;;;;;10.70;1.90;;;30.70;45.60;;;;;;4942580;28;45063;-65
2022/06/24 14:28:46;;;;;;;21.90;2.08;;;30.70;46.00;;;;;;4944418;28;46024;-67
2022/06/24 14:31:12;;;;;;;18.13;2.33;;;30.70;45.70;;;;;;4927487;28;45035;-68
2022/06/24 14:33:38;;;;;;;10.13;1.75;;;30.70;45.70;;;;;;4949546;28;45004;-63
2022/06/24 14:36:03;;;;;;;8.18;2.38;;;30.70;45.70;;;;;;4944710;28;44706;-69
2022/06/24 14:41:13;;;;;;;11.57;1.75;;;30.60;45.70;;;;;;4940885;28;45578;-67
2022/06/24 14:43:39;;;;;;;7.93;2.40;;;30.60;45.70;;;;;;4947655;28;44915;-62
2022/06/24 14:46:04;;;;;;;16.02;2.13;;;30.60;45.70;;;;;;4928299;28;45868;-66
2022/06/24 14:48:30;;;;;;;10.95;1.92;;;30.60;45.70;;;;;;4929596;28;45637;-67
2022/06/24 14:50:56;;;;;;;17.27;2.92;;;30.60;45.70;;;;;;4943446;28;45212;-68
2022/06/24 14:53:21;;;;;;;12.90;2.30;;;30.60;45.60;;;;;;4948107;28;45134;-68
2022/06/24 14:55:47;;;;;;;15.30;2.95;;;30.60;45.60;;;;;;4946112;28;45137;-64
2022/06/24 14:58:13;;;;;;;15.55;2.50;;;30.60;45.60;;;;;;4924653;28;45469;-65
2022/06/24 15:00:38;;;;;;;8.00;2.35;;;30.60;45.60;;;;;;4946193;28;45423;-62
2022/06/24 15:03:05;;;;;;;9.13;1.65;;;30.60;45.60;;;;;;4924712;28;45423;-63
2022/06/24 15:05:31;;;;;;;10.15;2.03;;;30.60;45.60;;;;;;4924521;28;44954;-70
2022/06/24 15:07:57;;;;;;;10.38;2.50;;;30.60;45.60;;;;;;4929048;28;46004;-67
2022/06/24 15:10:24;;;;;;;8.27;1.85;;;30.60;45.60;;;;;;4940372;28;45059;-69
2022/06/24 15:12:49;;;;;;;9.80;2.30;;;30.60;45.60;;;;;;4943964;28;45059;-66
2022/06/24 15:15:15;;;;;;;7.47;2.00;;;30.60;45.60;;;;;;4948512;28;44969;-64
2022/06/24 15:17:41;;;;;;;10.50;2.13;;;30.60;45.60;;;;;;4946388;28;45864;-63
2022/06/24 15:20:07;;;;;;;8.05;1.70;;;30.60;45.60;;;;;;4946063;28;45281;-63
2022/06/24 15:22:33;;;;;;;9.75;2.25;;;30.60;45.60;;;;;;4930600;28;44821;-66
2022/06/24 15:24:59;;;;;;;5.43;1.90;;;30.60;45.50;;;;;;4946189;28;45430;-63
2022/06/24 15:27:25;;;;;;;14.07;2.45;;;30.60;45.50;;;;;;4944804;28;45268;-67
2022/06/24 15:29:51;;;;;;;10.50;2.20;;;30.60;45.60;;;;;;4943041;28;44894;-66
2022/06/24 15:32:16;;;;;;;10.27;2.20;;;30.60;45.60;;;;;;4926897;28;45787;-69
2022/06/24 15:34:42;;;;;;;6.72;1.90;;;30.60;45.60;;;;;;4949223;28;45152;-67
2022/06/24 15:37:07;;;;;;;7.35;2.20;;;30.60;45.50;;;;;;4943536;28;46034;-63
2022/06/24 15:39:33;;;;;;;5.95;1.83;;;30.60;45.60;;;;;;4946816;28;45789;-69
2022/06/24 15:41:59;;;;;;;6.32;1.80;;;30.60;45.60;;;;;;4944947;28;44780;-62
2022/06/24 15:44:24;;;;;;;6.88;2.17;;;30.60;45.60;;;;;;4947009;28;44761;-67
2022/06/24 15:46:50;;;;;;;11.02;2.63;;;30.50;45.50;;;;;;4948522;28;46422;-65
2022/06/24 15:49:15;;;;;;;13.50;2.30;;;30.50;45.50;;;;;;4951405;28;44975;-63
2022/06/24 15:51:41;;;;;;;8.32;1.90;;;30.50;45.50;;;;;;4932459;28;45338;-63
2022/06/24 15:54:07;;;;;;;7.03;1.70;;;30.50;45.50;;;;;;4951490;28;45839;-63
2022/06/24 15:56:33;;;;;;;6.80;2.03;;;30.50;45.50;;;;;;4946203;28;45539;-65
2022/06/24 15:58:58;;;;;;;6.93;1.98;;;30.50;45.50;;;;;;4948209;28;45022;-69